10:00
Airports
History
Links
Donate
Help keep this website running!
PayPal
Bitcoin
Information on this page is community maintained and may be outdated or inaccurate and is intended for reference only or PC simulator navigating!
Always use approved charts for navigating.
BIAR
AKUREYRI
AKUREYRI (BIAR)
Akureyri, Northeast, Iceland (600)
(C)
Lat/Lng:65° 39' 31.07" N / 18° 4' 20.5" W
65.658631 / -18.072361
Elevation:6'ft 2mMSL
ID / ICAO:BIAR
Runways:1
Longest:(01-19) 1,931.2m 6,336ft Asphalt
Controlled:Yes
Distance To
Airport ID:
Airport Radio Frequencies
Tower: 118.2
Approach: 118.7
Nearby VORs <50NM
Nearby NDBs
METARUpdated 04-23-17 09:00 GMT
Altimeter: 30.30
Visibility: 6.2 statute miles
Wind: 13 knots (040°)
Temp: -2°c 28°f
Humidity: 74.0%

METAR: BIAR 230900Z 04013KT 9999 BKN033 OVC060 M02/M06 Q1026 R01/090073

(Powered by phpweather)
Runway 01 / 19
Dimensions:1931.2 x 45.1m 6336' x 148'ft
Surface:Asphalt
Edge Lights:High intensity
Runway 01 [A]Runway 19 [B]
Heading:355°TH 175°TH
Lat:
Lng:
65° 38' 59.85"N
18° 4' 14.6"W
65° 40' 2.29"N
18° 4' 26.4"W
ALS:RAIL
TDZ:Yes, lighted
Google Map
Nearby Airports
4 Melgerdismelar 12.4 NM
BIMM SSW 192°
4 Hrisey 25.3 NM
BIHY NNW 338°
(C) HUSAVIK 27.3 NM
BIHU NE 42°
4 Reykjahlid 32.8 NM
BIRL E 90°
4 Olafsfjordur 33.8 NM
BIOF NNW 330°
(U) SIGLUFJORDUR 40.5 NM
BISI NW 324°
(C) Saudarkrokur 43.0 NM
BIKR W 276°
VFR Chart
Flight Planning at SkyVector.com